Time;durP1;ratioP1;P1;durP2;ratioP2;P2;SDS_P1;SDS_P2;PMS_P1;PMS_P2;Temp;Humidity;BMP_temperature;BMP_pressure;BME280_temperature;BME280_humidity;BME280_pressure;Samples;Min_cycle;Max_cycle;Signal;HPM_P1;HPM_P2
2022/10/11 00:01:50;;;;;;;8.05;2.35;;;;;;;16.50;63.71;101637.91;4968981;28;20031;-85
2022/10/11 00:04:15;;;;;;;10.00;3.38;;;;;;;16.33;64.06;101614.09;4972366;28;20042;-85
2022/10/11 00:06:42;;;;;;;11.55;3.22;;;;;;;16.25;64.11;101601.22;4978285;28;20062;-85
2022/10/11 00:09:10;;;;;;;125.72;10.18;;;;;;;16.22;64.19;101590.66;4978298;28;20023;-85
2022/10/11 00:11:36;;;;;;;17.30;3.75;;;;;;;16.45;64.42;101633.88;4962716;28;20031;-85
2022/10/11 00:14:02;;;;;;;32.10;3.85;;;;;;;16.42;64.63;101623.28;4954137;28;20073;-85
2022/10/11 00:16:28;;;;;;;27.70;4.15;;;;;;;16.39;64.63;101632.56;4954477;28;20054;-85
2022/10/11 00:18:53;;;;;;;12.98;2.42;;;;;;;16.35;64.77;101623.00;4954367;28;20178;-84
2022/10/11 00:21:20;;;;;;;4.85;1.98;;;;;;;16.23;64.66;101614.09;4954649;28;20042;-85
2022/10/11 00:23:46;;;;;;;6.65;2.33;;;;;;;16.30;64.77;101626.09;4954029;29;20027;-84
2022/10/11 00:26:12;;;;;;;3.78;1.83;;;;;;;16.10;65.04;101591.75;4954374;28;20043;-84
2022/10/11 00:28:38;;;;;;;6.50;2.20;;;;;;;16.31;64.97;101613.38;4953799;28;20031;-84
2022/10/11 00:31:08;;;;;;;22.30;3.22;;;;;;;16.17;65.32;101590.22;4954315;28;20023;-85
2022/10/11 00:33:34;;;;;;;13.45;3.00;;;;;;;16.32;65.24;101613.28;4953644;28;20034;-84
2022/10/11 00:36:00;;;;;;;8.32;2.60;;;;;;;16.33;64.95;101609.53;4953593;28;20035;-84
2022/10/11 00:38:25;;;;;;;10.07;2.42;;;;;;;16.18;64.88;101578.34;4953683;28;20063;-85
2022/10/11 00:40:51;;;;;;;8.10;2.50;;;;;;;16.17;64.63;101573.94;4953749;29;20031;-86
2022/10/11 00:43:19;;;;;;;11.65;2.63;;;;;;;16.36;65.09;101596.69;4953758;28;20639;-85
2022/10/11 00:45:58;;;;;;;12.15;3.33;;;;;;;16.26;65.05;101586.66;4953558;29;20403;-84
2022/10/11 00:48:49;;;;;;;9.52;2.83;;;;;;;16.38;65.08;101595.56;4953799;29;20024;-84
2022/10/11 00:51:33;;;;;;;7.97;2.53;;;;;;;16.40;64.97;101598.13;4953785;28;20133;-85
2022/10/11 00:54:00;;;;;;;5.45;2.63;;;;;;;16.33;64.66;101582.38;4953741;29;20020;-84
2022/10/11 00:56:32;;;;;;;5.03;2.42;;;;;;;16.36;64.94;101591.28;4953966;28;20046;-84
2022/10/11 00:59:01;;;;;;;14.27;3.85;;;;;;;16.12;65.10;101559.03;4952329;29;20027;-84
2022/10/11 01:01:26;;;;;;;13.57;3.10;;;;;;;16.07;64.85;101543.16;4953392;28;20089;-84
2022/10/11 01:03:52;;;;;;;215.95;20.95;;;;;;;16.35;64.73;101584.97;4953500;29;20525;-85
2022/10/11 01:06:18;;;;;;;5.40;3.15;;;;;;;16.26;65.05;101573.09;4953223;28;20043;-86
2022/10/11 01:08:44;;;;;;;49.55;5.63;;;;;;;16.26;64.92;101564.09;4953525;28;20423;-84
2022/10/11 01:11:16;;;;;;;232.15;17.38;;;;;;;16.36;65.15;101574.97;4954214;28;20035;-84
2022/10/11 01:14:00;;;;;;;51.05;5.00;;;;;;;16.43;64.93;101581.56;4956903;28;20078;-84
2022/10/11 01:16:45;;;;;;;15.20;3.42;;;;;;;16.30;64.82;101566.38;4957095;29;20032;-84
2022/10/11 01:19:16;;;;;;;11.55;3.17;;;;;;;16.34;65.14;101570.53;4959843;28;20054;-85
2022/10/11 01:21:56;;;;;;;10.80;3.28;;;;;;;16.28;64.98;101559.38;4976991;28;20050;-84
2022/10/11 01:24:37;;;;;;;9.52;3.30;;;;;;;16.26;65.38;101564.94;4977889;28;20031;-84
2022/10/11 01:27:30;;;;;;;11.32;3.65;;;;;;;16.05;65.63;101539.75;4962491;28;20043;-84
2022/10/11 01:30:06;;;;;;;16.08;3.45;;;;;;;16.01;65.68;101530.16;4953118;29;20582;-87
2022/10/11 01:33:16;;;;;;;20.45;3.78;;;;;;;16.16;65.80;101563.19;4951917;29;20027;-83
2022/10/11 01:35:56;;;;;;;23.73;4.45;;;;;;;15.85;65.99;101532.50;4877846;29;20052;-84
2022/10/11 01:38:33;;;;;;;20.05;4.95;;;;;;;16.04;66.20;101559.72;4893174;29;20073;-86
2022/10/11 01:41:05;;;;;;;9.05;2.97;;;;;;;15.69;66.45;101502.31;4893196;29;20045;-85
2022/10/11 01:43:32;;;;;;;10.45;3.10;;;;;;;16.01;66.37;101557.28;4893422;29;20164;-84
2022/10/11 01:45:59;;;;;;;24.77;3.55;;;;;;;15.81;66.41;101525.63;4892999;29;20501;-85
2022/10/11 01:48:24;;;;;;;12.60;3.05;;;;;;;15.93;66.54;101546.25;4893454;29;20036;-85
2022/10/11 01:50:56;;;;;;;8.48;2.90;;;;;;;15.99;66.25;101545.69;4893363;29;20513;-83
2022/10/11 01:53:46;;;;;;;13.68;3.25;;;;;;;15.83;66.28;101523.66;4893566;29;20492;-86
2022/10/11 01:56:54;;;;;;;8.98;3.00;;;;;;;16.06;66.34;101559.56;4892837;29;20033;-85
2022/10/11 01:59:38;;;;;;;18.23;4.13;;;;;;;16.07;66.62;101555.88;4893000;29;20037;-84
2022/10/11 02:02:31;;;;;;;12.25;3.00;;;;;;;16.08;66.65;101549.47;4892637;29;20100;-83
2022/10/11 02:05:10;;;;;;;38.63;5.68;;;;;;;16.07;66.37;101554.03;4892930;29;20033;-85
2022/10/11 02:07:38;;;;;;;56.05;5.70;;;;;;;16.06;66.36;101556.84;4952074;28;20518;-84
2022/10/11 02:10:18;;;;;;;14.27;3.05;;;;;;;15.80;66.48;101510.38;4952217;28;20024;-84
2022/10/11 02:12:52;;;;;;;19.30;4.57;;;;;;;15.96;66.53;101534.28;4951966;28;20035;-84
2022/10/11 02:15:20;;;;;;;11.63;3.08;;;;;;;15.83;66.78;101512.81;4951952;28;20019;-85
2022/10/11 02:17:55;;;;;;;13.98;3.00;;;;;;;15.96;66.34;101529.69;4952317;28;20038;-86
2022/10/11 02:20:23;;;;;;;12.40;3.00;;;;;;;15.95;66.36;101528.00;4952113;28;20074;-86
2022/10/11 02:22:52;;;;;;;15.60;3.90;;;;;;;16.06;66.10;101552.28;4952219;29;20150;-85
2022/10/11 02:25:25;;;;;;;14.80;3.00;;;;;;;15.88;66.25;101518.66;4951970;28;20031;-84
2022/10/11 02:27:55;;;;;;;7.88;2.88;;;;;;;16.11;65.88;101550.06;4954358;29;20070;-84
2022/10/11 02:30:21;;;;;;;8.52;2.95;;;;;;;16.05;65.94;101544.31;4955936;28;20023;-85
2022/10/11 02:32:50;;;;;;;25.52;4.25;;;;;;;16.06;66.01;101546.88;4955181;28;20115;-84
2022/10/11 02:35:16;;;;;;;6.97;2.60;;;;;;;16.05;66.30;101544.31;4964354;28;20024;-84
2022/10/11 02:37:52;;;;;;;15.98;3.13;;;;;;;16.09;66.26;101548.44;4976186;28;20038;-85
2022/10/11 02:40:24;;;;;;;11.75;2.80;;;;;;;16.03;66.13;101546.28;4976458;28;20063;-84
2022/10/11 02:43:16;;;;;;;10.77;2.25;;;;;;;15.99;66.36;101553.84;4958809;28;20112;-84
2022/10/11 02:45:52;;;;;;;57.40;6.30;;;;;;;15.84;66.55;101541.63;4951807;28;20067;-84
2022/10/11 02:48:18;;;;;;;87.15;11.15;;;;;;;15.69;66.49;101521.28;4951821;29;20036;-85
2022/10/11 02:50:43;;;;;;;28.40;4.38;;;;;;;15.65;66.80;101522.59;4952045;28;20775;-84
2022/10/11 02:53:09;;;;;;;20.63;4.00;;;;;;;15.69;67.27;101537.56;4950898;29;20035;-85
2022/10/11 02:55:34;;;;;;;11.48;3.60;;;;;;;15.69;67.34;101541.16;4952034;28;20122;-85
2022/10/11 02:58:01;;;;;;;21.95;3.47;;;;;;;15.66;67.49;101538.72;4952359;28;20087;-84
2022/10/11 03:00:27;;;;;;;9.10;3.60;;;;;;;15.42;67.37;101511.00;4952023;28;20402;-84
2022/10/11 03:02:53;;;;;;;18.27;3.67;;;;;;;15.55;67.70;101537.94;4951833;28;20035;-83
2022/10/11 03:05:18;;;;;;;13.80;3.47;;;;;;;15.39;67.97;101513.97;4952117;28;20106;-85
2022/10/11 03:07:44;;;;;;;18.95;4.35;;;;;;;15.47;68.37;101538.59;4951688;28;20055;-85
2022/10/11 03:10:09;;;;;;;13.20;3.58;;;;;;;15.30;68.19;101508.50;4951964;28;20098;-85
2022/10/11 03:12:35;;;;;;;18.20;4.47;;;;;;;15.46;68.28;101547.72;4951995;28;20402;-84
2022/10/11 03:15:00;;;;;;;19.92;4.50;;;;;;;15.49;68.81;101541.19;4951390;28;20038;-85
2022/10/11 03:17:26;;;;;;;12.15;4.03;;;;;;;15.44;68.81;101538.00;4951754;29;20495;-83
2022/10/11 03:19:52;;;;;;;12.90;3.75;;;;;;;15.48;68.76;101539.47;4952367;28;20105;-86
2022/10/11 03:22:18;;;;;;;13.05;4.30;;;;;;;15.47;68.85;101540.44;4951752;28;20039;-85
2022/10/11 03:24:43;;;;;;;38.13;5.57;;;;;;;15.52;69.02;101540.91;4953011;28;20415;-84
2022/10/11 03:27:09;;;;;;;17.10;4.47;;;;;;;15.28;69.14;101492.38;4952311;28;20031;-81
2022/10/11 03:29:34;;;;;;;32.22;5.00;;;;;;;15.45;68.84;101516.16;4950297;29;20051;-84
2022/10/11 03:32:00;;;;;;;23.13;3.90;;;;;;;15.43;68.82;101509.16;4951662;28;20035;-82
2022/10/11 03:34:26;;;;;;;21.92;4.18;;;;;;;15.62;69.32;101547.25;4950091;29;20387;-82
2022/10/11 03:36:51;;;;;;;22.02;5.18;;;;;;;15.41;68.69;101494.88;4952041;29;20043;-83
2022/10/11 03:39:16;;;;;;;18.13;5.38;;;;;;;15.58;68.88;101535.81;4951733;29;20511;-83
2022/10/11 03:41:42;;;;;;;18.45;4.53;;;;;;;15.39;68.95;101496.84;4951630;29;20407;-82
2022/10/11 03:44:07;;;;;;;22.92;5.38;;;;;;;15.39;68.94;101502.28;4953330;28;20027;-82
2022/10/11 03:46:33;;;;;;;16.33;4.30;;;;;;;15.15;68.77;101451.09;4956911;28;20061;-83
2022/10/11 03:48:58;;;;;;;34.67;5.78;;;;;;;15.34;68.50;101482.84;4957153;28;20032;-81
2022/10/11 03:51:24;;;;;;;23.23;5.10;;;;;;;15.55;68.66;101525.25;4967754;28;20031;-81
2022/10/11 03:53:49;;;;;;;19.27;4.22;;;;;;;15.54;68.83;101509.97;4978666;28;20018;-85
2022/10/11 03:56:15;;;;;;;35.85;5.18;;;;;;;15.15;68.72;101443.81;4977644;28;20039;-84
2022/10/11 03:58:40;;;;;;;45.78;7.20;;;;;;;15.60;68.56;101519.41;4960933;28;20046;-83
2022/10/11 04:01:07;;;;;;;47.65;5.80;;;;;;;15.35;68.86;101488.13;4954870;29;20057;-83
2022/10/11 04:03:33;;;;;;;95.55;8.15;;;;;;;15.56;68.84;101517.97;4955104;29;20035;-83
2022/10/11 04:05:59;;;;;;;88.88;8.40;;;;;;;15.58;68.94;101518.69;4952826;29;20174;-84
2022/10/11 04:08:25;;;;;;;116.10;9.20;;;;;;;15.49;68.99;101503.22;4954196;28;20130;-83
2022/10/11 04:10:50;;;;;;;47.00;7.53;;;;;;;15.24;69.07;101459.28;4954086;28;20050;-82
2022/10/11 04:13:15;;;;;;;351.58;25.13;;;;;;;15.53;68.99;101501.97;4954652;29;20165;-83
2022/10/11 04:15:41;;;;;;;357.13;19.75;;;;;;;15.47;69.00;101488.94;4955046;28;20058;-84
2022/10/11 04:18:07;;;;;;;357.02;29.02;;;;;;;15.54;69.28;101501.81;4955092;28;20023;-85
2022/10/11 04:20:33;;;;;;;189.52;17.35;;;;;;;15.35;68.96;101469.16;4954675;28;20023;-82
2022/10/11 04:22:58;;;;;;;156.43;15.07;;;;;;;15.49;69.03;101478.81;4953665;28;20559;-83
2022/10/11 04:25:24;;;;;;;119.70;10.68;;;;;;;15.64;68.82;101507.28;4954440;28;20569;-84
2022/10/11 04:27:49;;;;;;;103.22;10.45;;;;;;;15.40;68.69;101461.50;4955231;28;20331;-84
2022/10/11 04:30:15;;;;;;;61.75;7.55;;;;;;;15.69;68.69;101495.03;4954249;29;20051;-84
2022/10/11 04:32:41;;;;;;;24.55;5.15;;;;;;;15.56;68.34;101466.44;4955845;28;20653;-83
2022/10/11 04:35:07;;;;;;;74.22;8.82;;;;;;;15.49;68.48;101451.72;4952464;29;20032;-85
2022/10/11 04:37:33;;;;;;;47.38;6.32;;;;;;;15.70;68.44;101490.47;4952611;29;20122;-86
2022/10/11 04:39:58;;;;;;;183.52;14.20;;;;;;;15.75;68.21;101491.78;4954433;28;20027;-85
2022/10/11 04:42:24;;;;;;;247.52;19.75;;;;;;;15.96;68.17;101518.84;4955586;28;20553;-86
2022/10/11 04:44:49;;;;;;;405.70;29.20;;;;;;;15.81;68.13;101493.06;4951370;28;20114;-83
2022/10/11 04:47:14;;;;;;;889.22;75.45;;;;;;;15.93;67.77;101493.84;4953248;29;20035;-82
2022/10/11 04:49:40;;;;;;;996.20;77.35;;;;;;;15.73;67.78;101463.09;4956108;28;20058;-83
2022/10/11 04:52:05;;;;;;;327.77;25.75;;;;;;;15.78;67.94;101471.66;4954617;29;20526;-82
2022/10/11 04:54:31;;;;;;;792.00;73.20;;;;;;;16.13;68.03;101523.63;4953862;28;20024;-83
2022/10/11 04:56:56;;;;;;;1044.20;84.75;;;;;;;16.12;67.65;101512.88;4953416;28;20032;-85
2022/10/11 04:59:22;;;;;;;861.45;72.05;;;;;;;16.32;67.69;101537.25;4956255;28;20470;-83
2022/10/11 05:01:47;;;;;;;829.60;72.32;;;;;;;16.20;67.29;101511.22;4955662;29;20035;-82
2022/10/11 05:04:13;;;;;;;841.33;72.40;;;;;;;16.42;67.13;101541.84;4956503;28;20044;-83
2022/10/11 05:06:38;;;;;;;750.08;60.17;;;;;;;16.28;66.83;101514.06;4963285;29;20059;-86
2022/10/11 05:09:04;;;;;;;378.85;28.55;;;;;;;16.46;67.22;101526.97;4975179;28;20087;-83
2022/10/11 05:11:29;;;;;;;483.77;34.58;;;;;;;16.52;66.92;101529.97;4974946;29;20031;-83
2022/10/11 05:13:55;;;;;;;1176.10;105.93;;;;;;;16.59;66.70;101523.03;4962895;28;20035;-84
2022/10/11 05:16:22;;;;;;;1040.53;92.80;;;;;;;16.71;66.66;101531.88;4955075;28;20027;-82
2022/10/11 05:18:47;;;;;;;829.13;69.82;;;;;;;16.73;66.57;101529.88;4954054;29;20034;-83
2022/10/11 05:21:16;;;;;;;185.77;19.48;;;;;;;16.81;66.53;101539.06;4954481;28;20035;-81
2022/10/11 05:23:42;;;;;;;428.98;36.55;;;;;;;16.73;66.32;101519.00;4953672;28;20109;-82
2022/10/11 05:26:07;;;;;;;357.65;33.53;;;;;;;16.50;66.33;101460.50;4953521;28;20698;-81
2022/10/11 05:28:33;;;;;;;467.23;39.72;;;;;;;17.01;66.03;101544.47;4953014;28;20027;-81
2022/10/11 05:30:58;;;;;;;262.65;21.83;;;;;;;16.96;66.28;101550.34;4954422;28;20027;-86
2022/10/11 05:33:24;;;;;;;477.55;34.33;;;;;;;16.97;65.58;101553.94;4959527;28;20062;-86
2022/10/11 05:35:50;;;;;;;189.77;18.08;;;;;;;16.59;65.58;101473.25;4960566;28;20467;-86
2022/10/11 05:38:15;;;;;;;209.70;16.60;;;;;;;17.08;65.49;101546.47;4956149;29;20061;-85
2022/10/11 05:40:41;;;;;;;304.92;23.58;;;;;;;17.00;65.99;101543.59;4958735;28;20042;-87
2022/10/11 05:43:07;;;;;;;156.48;11.85;;;;;;;17.07;65.24;101539.31;4966735;29;20050;-89
2022/10/11 05:45:37;;;;;;;39.75;4.72;;;;;;;17.16;64.64;101546.59;4961625;29;20035;-88
2022/10/11 05:48:03;;;;;;;196.43;15.20;;;;;;;16.90;64.46;101499.28;4961930;29;20078;-89
2022/10/11 05:50:29;;;;;;;59.03;6.95;;;;;;;17.06;64.32;101515.00;4962840;28;20031;-86
2022/10/11 05:52:54;;;;;;;38.33;4.68;;;;;;;17.29;63.61;101554.44;4963320;29;20070;-88
2022/10/11 05:55:20;;;;;;;160.90;11.27;;;;;;;17.08;63.45;101502.97;4963159;28;20118;-89
2022/10/11 05:57:45;;;;;;;95.10;8.55;;;;;;;16.95;63.38;101475.25;4960734;29;20119;-86
2022/10/11 06:00:11;;;;;;;181.85;11.98;;;;;;;17.37;63.15;101527.38;4958901;28;20035;-86
2022/10/11 06:02:36;;;;;;;84.93;7.15;;;;;;;17.17;62.94;101499.38;4958608;28;20035;-86
2022/10/11 06:05:02;;;;;;;38.53;6.72;;;;;;;17.28;62.85;101496.50;4959949;28;20347;-86
2022/10/11 06:07:27;;;;;;;258.23;17.58;;;;;;;17.64;62.47;101551.13;4957139;28;20059;-87
2022/10/11 06:09:53;;;;;;;43.55;5.25;;;;;;;17.71;62.46;101554.94;4958729;29;20027;-86
2022/10/11 06:12:20;;;;;;;594.75;55.00;;;;;;;17.79;61.99;101553.22;4959808;28;20027;-86
2022/10/11 06:14:46;;;;;;;89.75;6.97;;;;;;;17.36;61.34;101477.59;4963932;28;20109;-87
2022/10/11 06:17:11;;;;;;;34.20;4.70;;;;;;;17.77;61.12;101533.44;4969316;28;20066;-84
2022/10/11 06:19:36;;;;;;;9.55;2.70;;;;;;;17.68;61.00;101517.16;4970839;28;20035;-85
2022/10/11 06:22:02;;;;;;;7.22;2.75;;;;;;;17.88;61.14;101551.47;4969160;29;20031;-86
2022/10/11 06:24:27;;;;;;;19.98;3.40;;;;;;;17.84;60.29;101528.28;4970955;28;20055;-87
2022/10/11 06:26:53;;;;;;;20.38;2.40;;;;;;;17.65;60.06;101495.69;4973700;28;20054;-87
2022/10/11 06:29:18;;;;;;;194.65;13.68;;;;;;;17.75;59.93;101513.69;4962872;28;20079;-86
2022/10/11 06:31:44;;;;;;;211.20;13.75;;;;;;;17.45;59.94;101461.38;4958337;28;20027;-86
2022/10/11 06:34:10;;;;;;;12.98;2.65;;;;;;;17.98;59.72;101541.38;4956622;28;20130;-87
2022/10/11 06:36:35;;;;;;;42.03;4.63;;;;;;;17.92;59.72;101534.66;4955135;29;20042;-87
2022/10/11 06:39:01;;;;;;;12.10;2.60;;;;;;;17.70;59.87;101490.66;4953619;28;20035;-84
2022/10/11 06:41:28;;;;;;;6.07;2.25;;;;;;;17.78;59.63;101499.78;4951861;29;20102;-86
2022/10/11 06:43:54;;;;;;;25.70;3.13;;;;;;;17.89;59.37;101501.44;4954128;28;20027;-85
2022/10/11 06:46:22;;;;;;;93.60;7.45;;;;;;;18.00;59.44;101530.34;4954843;29;20111;-86
2022/10/11 06:48:48;;;;;;;37.63;3.80;;;;;;;17.63;58.79;101460.47;4953119;29;20034;-85
2022/10/11 06:51:16;;;;;;;13.27;1.98;;;;;;;17.97;58.16;101523.34;4953467;29;20027;-88
2022/10/11 06:53:42;;;;;;;7.45;2.45;;;;;;;17.82;58.45;101509.38;4951179;29;20430;-85
2022/10/11 06:56:10;;;;;;;13.52;2.40;;;;;;;18.06;58.35;101549.66;4952739;29;20023;-83
2022/10/11 06:58:36;;;;;;;30.88;2.85;;;;;;;18.02;57.87;101531.91;4953378;29;20046;-86
2022/10/11 07:01:05;;;;;;;16.15;2.42;;;;;;;17.95;57.81;101542.53;4953748;29;20047;-86
2022/10/11 07:03:30;;;;;;;34.47;3.63;;;;;;;18.09;57.79;101537.59;4952244;29;20046;-84
2022/10/11 07:06:07;;;;;;;14.10;2.47;;;;;;;18.35;57.47;101566.69;4950851;29;20019;-85
2022/10/11 07:08:34;;;;;;;9.45;2.40;;;;;;;18.02;57.48;101515.56;4951186;29;20061;-84
2022/10/11 07:11:05;;;;;;;14.48;2.60;;;;;;;18.42;57.04;101562.38;4951222;29;20027;-83
2022/10/11 07:13:30;;;;;;;55.60;5.30;;;;;;;18.38;56.92;101541.00;4951535;29;20031;-83
2022/10/11 07:15:56;;;;;;;23.27;3.00;;;;;;;18.33;56.89;101543.34;4950054;29;20035;-86
2022/10/11 07:18:22;;;;;;;16.38;3.28;;;;;;;18.40;56.49;101553.50;4952983;28;20032;-84
2022/10/11 07:20:48;;;;;;;56.13;4.72;;;;;;;18.29;56.56;101548.25;4954421;29;20034;-83
2022/10/11 07:23:13;;;;;;;113.05;9.38;;;;;;;18.44;56.20;101576.69;4951876;29;20047;-85
2022/10/11 07:25:39;;;;;;;7.68;2.22;;;;;;;18.58;56.45;101569.03;4955833;28;20107;-84
2022/10/11 07:28:04;;;;;;;32.80;3.50;;;;;;;18.61;56.45;101560.56;4955799;29;20073;-82
2022/10/11 07:30:30;;;;;;;27.00;3.20;;;;;;;18.60;56.65;101550.66;4957979;29;20023;-84
2022/10/11 07:32:55;;;;;;;22.02;2.75;;;;;;;18.70;56.41;101570.53;4958975;29;20064;-82
2022/10/11 07:35:21;;;;;;;47.90;4.25;;;;;;;18.60;55.36;101510.66;4958881;29;20059;-83
2022/10/11 07:37:46;;;;;;;21.88;3.15;;;;;;;18.73;55.42;101551.13;4966910;28;20019;-86
2022/10/11 07:40:12;;;;;;;291.25;27.40;;;;;;;18.66;55.18;101531.81;4977779;28;20023;-87
2022/10/11 07:42:37;;;;;;;572.97;69.70;;;;;;;18.97;54.54;101554.09;4979061;28;20035;-85
2022/10/11 07:45:03;;;;;;;128.90;13.73;;;;;;;18.95;54.50;101556.13;4966836;28;20038;-84
2022/10/11 07:47:28;;;;;;;184.18;16.20;;;;;;;18.63;54.36;101518.50;4956440;29;20394;-85
2022/10/11 07:49:54;;;;;;;38.60;5.13;;;;;;;18.73;54.30;101548.41;4954546;28;20063;-85
2022/10/11 07:52:19;;;;;;;43.50;3.70;;;;;;;18.91;54.27;101582.84;4958406;28;20102;-83
2022/10/11 07:54:47;;;;;;;39.22;4.32;;;;;;;18.54;54.38;101527.59;4954810;28;20513;-83
2022/10/11 07:57:14;;;;;;;158.05;8.10;;;;;;;18.77;54.28;101547.09;4955257;28;20027;-86
2022/10/11 07:59:40;;;;;;;20.73;2.33;;;;;;;18.71;54.02;101523.19;4957947;28;20054;-88
2022/10/11 08:02:10;;;;;;;19.77;2.17;;;;;;;19.03;53.33;101564.38;4955343;29;20569;-88
2022/10/11 08:04:36;;;;;;;18.30;2.15;;;;;;;19.32;53.15;101578.63;4954939;29;20494;-85
2022/10/11 08:07:01;;;;;;;84.68;6.38;;;;;;;19.32;52.57;101555.94;4953714;28;20059;-86
2022/10/11 08:09:27;;;;;;;30.45;2.75;;;;;;;19.37;52.39;101559.91;4954707;28;20066;-86
2022/10/11 08:11:52;;;;;;;17.27;2.80;;;;;;;19.40;51.86;101540.50;4954945;28;20031;-85
2022/10/11 08:14:18;;;;;;;20.80;2.42;;;;;;;19.51;51.94;101573.00;4955136;28;20028;-85
2022/10/11 08:16:43;;;;;;;46.92;3.42;;;;;;;19.54;51.73;101556.28;4955365;28;20045;-84
2022/10/11 08:19:10;;;;;;;58.10;5.00;;;;;;;19.26;51.26;101496.56;4961477;28;20066;-85
2022/10/11 08:21:35;;;;;;;47.13;3.58;;;;;;;19.71;51.08;101572.78;4963944;28;20038;-82
2022/10/11 08:24:03;;;;;;;57.95;10.20;;;;;;;19.63;51.16;101542.72;4955599;29;20024;-84
2022/10/11 08:26:28;;;;;;;122.45;8.77;;;;;;;19.61;50.46;101518.31;4956749;28;20038;-84
2022/10/11 08:28:54;;;;;;;49.40;5.50;;;;;;;20.17;49.82;101563.31;4955154;28;20027;-82
2022/10/11 08:31:19;;;;;;;98.75;5.70;;;;;;;20.09;49.23;101555.91;4955799;28;20023;-83
2022/10/11 08:33:45;;;;;;;328.70;29.75;;;;;;;20.20;49.80;101561.09;4954019;29;20035;-84
2022/10/11 08:36:12;;;;;;;74.53;5.65;;;;;;;20.09;49.72;101561.38;4956352;28;20051;-85
2022/10/11 08:38:38;;;;;;;13.60;2.13;;;;;;;19.97;50.06;101558.09;4953274;29;20479;-85
2022/10/11 08:41:22;;;;;;;77.45;4.57;;;;;;;20.12;50.24;101549.28;4954201;28;20123;-82
2022/10/11 08:43:59;;;;;;;144.77;12.15;;;;;;;20.24;49.84;101565.22;4954345;28;20027;-84
2022/10/11 08:46:29;;;;;;;420.35;28.90;;;;;;;19.96;49.20;101520.03;4956225;29;20098;-83
2022/10/11 08:48:56;;;;;;;46.90;3.90;;;;;;;20.12;48.68;101557.50;4957906;28;20035;-85
2022/10/11 08:51:26;;;;;;;95.05;7.95;;;;;;;19.72;48.61;101448.94;4960065;29;20036;-85
2022/10/11 08:54:05;;;;;;;112.22;9.02;;;;;;;20.30;48.69;101517.28;4969263;28;20011;-86
2022/10/11 08:56:36;;;;;;;58.38;5.03;;;;;;;20.68;48.39;101563.16;4976564;28;20066;-86
2022/10/11 08:59:33;;;;;;;17.98;2.38;;;;;;;20.60;47.39;101560.41;4975811;28;20042;-85
2022/10/11 09:02:28;;;;;;;55.50;3.67;;;;;;;20.36;47.07;101471.03;4959035;29;20434;-83
2022/10/11 09:05:15;;;;;;;95.10;6.85;;;;;;;20.79;47.20;101551.06;4921742;29;20048;-84
2022/10/11 09:08:10;;;;;;;24.08;2.75;;;;;;;20.96;46.58;101539.97;4915643;29;20080;-86
2022/10/11 09:11:04;;;;;;;54.20;3.83;;;;;;;21.13;46.16;101546.31;4899805;29;20127;-85
2022/10/11 09:13:52;;;;;;;55.47;3.55;;;;;;;20.87;46.13;101545.59;4921829;29;20024;-89
2022/10/11 09:16:23;;;;;;;55.45;4.22;;;;;;;20.82;46.42;101537.06;4913048;29;20095;-83
2022/10/11 09:19:33;;;;;;;35.17;3.03;;;;;;;20.97;45.98;101551.78;4911839;29;20090;-84
2022/10/11 09:22:07;;;;;;;67.88;6.28;;;;;;;20.76;46.00;101496.72;4823642;29;20167;-87
2022/10/11 09:24:34;;;;;;;17.55;1.77;;;;;;;21.05;46.57;101549.03;4838680;29;20087;-86
2022/10/11 09:27:08;;;;;;;15.55;2.70;;;;;;;21.13;46.25;101538.97;4837178;29;20889;-84
2022/10/11 09:29:53;;;;;;;113.72;7.32;;;;;;;21.19;46.28;101548.41;4836751;29;20091;-85
2022/10/11 09:32:20;;;;;;;17.67;2.38;;;;;;;21.34;45.85;101533.00;4836586;29;20036;-84
2022/10/11 09:34:52;;;;;;;682.33;42.80;;;;;;;21.34;46.07;101538.47;4836668;29;20465;-83
2022/10/11 09:37:31;;;;;;;160.80;10.98;;;;;;;21.38;45.84;101539.81;4836696;29;20145;-84
2022/10/11 09:40:09;;;;;;;20.27;2.22;;;;;;;21.38;45.81;101534.34;4838860;29;20135;-83
2022/10/11 09:42:34;;;;;;;9.80;2.30;;;;;;;21.07;45.98;101520.47;4867912;29;20075;-86
2022/10/11 09:45:01;;;;;;;23.38;2.30;;;;;;;21.09;45.81;101528.56;4874157;29;20069;-84
2022/10/11 09:47:29;;;;;;;93.25;7.07;;;;;;;20.92;45.90;101469.34;4858295;29;20472;-84
2022/10/11 09:49:58;;;;;;;24.38;2.65;;;;;;;21.22;45.71;101534.38;4874183;29;20060;-84
2022/10/11 09:52:23;;;;;;;49.42;3.03;;;;;;;21.13;44.79;101508.00;4874738;29;20044;-84
2022/10/11 09:54:53;;;;;;;115.65;8.98;;;;;;;21.27;44.96;101529.22;4880380;29;20044;-83
2022/10/11 09:57:24;;;;;;;195.23;11.30;;;;;;;21.30;45.29;101530.75;4952531;28;20062;-83
2022/10/11 10:00:05;;;;;;;260.87;17.17;;;;;;;21.21;44.78;101535.38;4953561;29;20118;-83
2022/10/11 10:02:43;;;;;;;15.95;2.20;;;;;;;20.90;45.41;101498.75;4955354;28;20070;-83
2022/10/11 10:05:08;;;;;;;89.88;5.22;;;;;;;20.83;46.04;101525.06;4955685;28;20126;-85
2022/10/11 10:07:36;;;;;;;24.30;2.13;;;;;;;20.62;46.12;101514.63;4955231;28;20126;-83
2022/10/11 10:10:41;;;;;;;20.73;3.05;;;;;;;20.49;46.84;101520.56;4968309;28;20111;-85
2022/10/11 10:13:22;;;;;;;42.58;3.58;;;;;;;20.54;46.52;101496.34;4974966;28;20092;-89
2022/10/11 10:15:52;;;;;;;14.65;2.53;;;;;;;20.12;46.87;101429.09;4967242;28;20035;-86
2022/10/11 10:18:22;;;;;;;24.92;2.40;;;;;;;20.37;46.51;101469.13;4951733;28;20037;-82
2022/10/11 10:20:54;;;;;;;84.75;5.93;;;;;;;20.36;46.70;101506.56;4952209;29;20824;-84
2022/10/11 10:23:29;;;;;;;36.38;5.28;;;;;;;20.29;47.17;101496.44;4952053;29;20122;-82
2022/10/11 10:26:27;;;;;;;62.05;4.82;;;;;;;20.25;47.45;101508.69;4951716;28;20042;-84
2022/10/11 10:29:00;;;;;;;9.93;2.30;;;;;;;20.44;47.17;101512.03;4876974;29;20104;-87
2022/10/11 10:31:38;;;;;;;18.17;3.15;;;;;;;20.41;46.57;101506.03;4878025;29;20041;-88
2022/10/11 10:34:12;;;;;;;41.45;3.10;;;;;;;19.98;47.63;101444.25;4893684;29;20032;-88
2022/10/11 10:36:43;;;;;;;11.60;1.83;;;;;;;20.42;47.36;101508.63;4894830;29;20036;-85
2022/10/11 10:39:20;;;;;;;21.30;2.30;;;;;;;20.53;47.10;101510.16;4886727;29;20036;-85
2022/10/11 10:41:46;;;;;;;25.33;3.53;;;;;;;20.70;46.53;101500.13;4899553;29;20060;-87
2022/10/11 10:44:14;;;;;;;31.80;3.05;;;;;;;21.02;46.54;101490.03;4892579;29;20095;-89
2022/10/11 10:46:39;;;;;;;28.00;3.05;;;;;;;21.19;45.70;101496.41;4878914;29;20036;-89
2022/10/11 10:49:24;;;;;;;59.95;3.75;;;;;;;21.11;46.00;101469.91;4880500;29;20124;-88
2022/10/11 10:52:04;;;;;;;22.92;2.88;;;;;;;21.47;45.29;101494.97;4880214;29;20064;-90
2022/10/11 10:54:39;;;;;;;104.93;6.95;;;;;;;21.46;44.64;101486.94;4884412;29;20037;-87
2022/10/11 10:57:22;;;;;;;81.28;4.15;;;;;;;21.43;45.31;101474.47;4881505;29;20056;-88
2022/10/11 11:00:17;;;;;;;6.45;2.22;;;;;;;21.51;45.11;101484.53;4897838;29;20037;-87
2022/10/11 11:02:43;;;;;;;123.00;8.50;;;;;;;21.36;44.91;101487.13;4898242;29;20140;-89
2022/10/11 11:05:42;;;;;;;19.13;3.03;;;;;;;21.52;45.57;101481.63;4938394;29;20126;-88
2022/10/11 11:08:43;;;;;;;13.55;3.08;;;;;;;21.62;45.25;101476.78;4955359;29;20097;-87
2022/10/11 11:11:27;;;;;;;39.15;3.90;;;;;;;21.47;45.60;101478.53;4955083;29;20031;-87
2022/10/11 11:14:10;;;;;;;31.38;2.83;;;;;;;21.53;45.15;101461.41;4957500;29;20027;-85
2022/10/11 11:16:35;;;;;;;173.93;10.48;;;;;;;21.45;45.08;101477.88;4959868;29;20032;-89
2022/10/11 11:19:12;;;;;;;13.15;2.15;;;;;;;21.33;45.50;101443.69;4967214;29;20054;-88
2022/10/11 11:22:05;;;;;;;61.47;4.85;;;;;;;21.37;45.68;101450.53;4969443;29;20019;-88
2022/10/11 11:24:34;;;;;;;69.10;3.90;;;;;;;21.69;45.82;101468.72;4973641;28;20023;-89
2022/10/11 11:27:17;;;;;;;12.95;2.47;;;;;;;21.26;45.49;101360.59;4978341;28;20062;-91
2022/10/11 11:30:02;;;;;;;10.25;2.45;;;;;;;20.77;45.24;101326.16;4978505;28;20027;-89